Time;durP1;ratioP1;P1;durP2;ratioP2;P2;SDS_P1;SDS_P2;PMS_P1;PMS_P2;Temp;Humidity;BMP_temperature;BMP_pressure;BME280_temperature;BME280_humidity;BME280_pressure;Samples;Min_cycle;Max_cycle;Signal;HPM_P1;HPM_P2
2022/10/09 00:01:10;;;;;;;0.70;0.70;;;2.70;99.90;;;;;;5053922;28;20217;-73
2022/10/09 00:03:38;;;;;;;0.40;0.40;;;2.70;99.90;;;;;;5066240;28;20236;-72
2022/10/09 00:06:05;;;;;;;0.50;0.50;;;2.70;99.90;;;;;;5049745;28;20194;-73
2022/10/09 00:08:32;;;;;;;0.63;0.63;;;2.70;99.90;;;;;;5050288;28;20284;-71
2022/10/09 00:10:58;;;;;;;0.60;0.60;;;2.70;99.90;;;;;;5050147;28;20623;-71
2022/10/09 00:13:24;;;;;;;0.55;0.55;;;2.70;99.90;;;;;;5051673;28;20191;-70
2022/10/09 00:15:49;;;;;;;0.60;0.60;;;2.60;99.90;;;;;;5051641;28;20193;-71
2022/10/09 00:18:17;;;;;;;0.60;0.60;;;2.60;99.90;;;;;;5050785;28;20204;-71
2022/10/09 00:20:44;;;;;;;0.70;0.70;;;2.50;99.90;;;;;;5032599;28;20213;-71
2022/10/09 00:23:16;;;;;;;0.68;0.68;;;2.50;99.90;;;;;;5013905;28;20198;-71
2022/10/09 00:25:51;;;;;;;0.45;0.45;;;2.40;99.90;;;;;;5031296;28;20194;-71
2022/10/09 00:28:17;;;;;;;0.60;0.60;;;2.40;99.90;;;;;;5031472;28;20568;-71
2022/10/09 00:30:42;;;;;;;0.60;0.60;;;2.40;99.90;;;;;;5013487;28;20198;-73
2022/10/09 00:33:08;;;;;;;0.65;0.65;;;2.40;99.90;;;;;;5031499;28;20251;-73
2022/10/09 00:35:37;;;;;;;0.60;0.60;;;2.40;99.90;;;;;;5047169;28;20240;-73
2022/10/09 00:38:03;;;;;;;0.50;0.50;;;2.30;99.90;;;;;;5056588;28;20560;-73
2022/10/09 00:40:29;;;;;;;0.57;0.57;;;2.30;99.90;;;;;;5070962;28;20201;-72
2022/10/09 00:42:56;;;;;;;0.60;0.60;;;2.30;99.90;;;;;;5053165;28;20197;-73
2022/10/09 00:45:22;;;;;;;0.68;0.68;;;2.40;99.90;;;;;;5071009;28;20242;-72
2022/10/09 00:47:51;;;;;;;0.70;0.70;;;2.40;99.90;;;;;;5071032;28;20184;-71
2022/10/09 00:50:36;;;;;;;0.60;0.60;;;2.30;99.90;;;;;;5071144;28;20192;-73
2022/10/09 00:53:02;;;;;;;0.70;0.70;;;2.30;99.90;;;;;;5071202;28;20196;-73
2022/10/09 00:55:30;;;;;;;0.60;0.60;;;2.20;99.90;;;;;;5053022;28;20301;-73
2022/10/09 00:57:57;;;;;;;0.50;0.50;;;2.10;99.90;;;;;;5057149;28;20204;-73
2022/10/09 01:00:23;;;;;;;0.60;0.60;;;2.10;99.90;;;;;;5050664;28;20205;-72
2022/10/09 01:02:49;;;;;;;0.70;0.70;;;2.10;99.90;;;;;;5051516;28;20644;-68
2022/10/09 01:05:15;;;;;;;0.70;0.70;;;2.10;99.90;;;;;;5050946;28;20239;-67
2022/10/09 01:07:44;;;;;;;0.50;0.50;;;2.00;99.90;;;;;;5050742;28;20186;-69
2022/10/09 01:10:35;;;;;;;0.60;0.60;;;2.00;99.90;;;;;;5050852;28;20204;-67
2022/10/09 01:13:06;;;;;;;0.70;0.70;;;2.00;99.90;;;;;;5050946;28;20694;-69
2022/10/09 01:15:46;;;;;;;0.60;0.60;;;2.00;99.90;;;;;;5050804;28;20197;-68
2022/10/09 01:18:19;;;;;;;0.70;0.70;;;1.80;99.90;;;;;;5051005;28;20652;-67
2022/10/09 01:21:10;;;;;;;0.60;0.60;;;1.80;99.90;;;;;;5032648;28;20236;-69
2022/10/09 01:23:57;;;;;;;0.70;0.70;;;1.70;99.90;;;;;;5050689;28;20668;-68
2022/10/09 01:26:53;;;;;;;0.65;0.65;;;1.60;99.90;;;;;;5049181;28;20229;-68
2022/10/09 01:29:22;;;;;;;0.70;0.70;;;1.50;99.90;;;;;;5035404;28;20194;-69
2022/10/09 01:31:49;;;;;;;0.70;0.70;;;1.50;99.90;;;;;;5036744;28;20300;-69
2022/10/09 01:34:18;;;;;;;0.57;0.57;;;1.40;99.90;;;;;;5059628;28;20243;-69
2022/10/09 01:36:44;;;;;;;0.52;0.52;;;1.40;99.90;;;;;;5074547;28;20192;-69
2022/10/09 01:39:15;;;;;;;0.70;0.70;;;1.40;99.90;;;;;;5074501;28;20200;-69
2022/10/09 01:41:42;;;;;;;0.60;0.60;;;1.30;99.90;;;;;;5074200;28;20208;-68
2022/10/09 01:44:20;;;;;;;0.70;0.70;;;1.40;99.90;;;;;;5056384;28;20204;-68
2022/10/09 01:46:46;;;;;;;0.70;0.70;;;1.40;99.90;;;;;;5074396;28;20207;-69
2022/10/09 01:49:58;;;;;;;0.60;0.60;;;1.40;99.90;;;;;;5074406;28;20698;-68
2022/10/09 01:52:51;;;;;;;0.50;0.50;;;1.40;99.90;;;;;;5050312;28;20208;-68
2022/10/09 01:55:39;;;;;;;0.60;0.60;;;1.40;99.90;;;;;;5054253;28;20197;-68
2022/10/09 01:58:11;;;;;;;0.60;0.60;;;1.30;99.90;;;;;;5054078;28;20252;-68
2022/10/09 02:00:52;;;;;;;0.57;0.57;;;1.30;99.90;;;;;;5053286;28;20714;-69
2022/10/09 02:03:19;;;;;;;0.68;0.68;;;1.20;99.90;;;;;;5053924;28;20185;-70
2022/10/09 02:05:48;;;;;;;0.60;0.60;;;1.20;99.90;;;;;;5054013;28;20698;-68
2022/10/09 02:08:18;;;;;;;0.70;0.70;;;1.10;99.90;;;;;;5054120;28;20451;-68
2022/10/09 02:10:46;;;;;;;0.63;0.63;;;1.10;99.90;;;;;;5053739;28;20710;-68
2022/10/09 02:13:12;;;;;;;0.70;0.70;;;1.10;99.90;;;;;;5053891;28;20190;-68
2022/10/09 02:15:50;;;;;;;0.60;0.60;;;1.00;99.90;;;;;;5053693;28;20558;-68
2022/10/09 02:18:25;;;;;;;0.50;0.50;;;1.00;99.90;;;;;;5053798;28;20588;-68
2022/10/09 02:20:55;;;;;;;0.70;0.70;;;1.00;99.90;;;;;;5053597;28;20204;-68
2022/10/09 02:23:23;;;;;;;0.70;0.70;;;1.00;99.90;;;;;;5053634;28;20193;-69
2022/10/09 02:25:49;;;;;;;0.63;0.63;;;1.10;99.90;;;;;;5053637;28;20181;-69
2022/10/09 02:28:15;;;;;;;0.52;0.52;;;1.10;99.90;;;;;;5035559;28;20201;-68
2022/10/09 02:30:55;;;;;;;0.70;0.70;;;1.20;99.90;;;;;;5059647;28;20219;-68
2022/10/09 02:33:29;;;;;;;0.65;0.65;;;1.20;99.90;;;;;;5055372;28;20204;-68
2022/10/09 02:35:54;;;;;;;0.60;0.60;;;1.20;99.90;;;;;;5055452;28;20227;-69
2022/10/09 02:38:20;;;;;;;0.70;0.70;;;1.20;99.90;;;;;;5073333;28;20652;-69
2022/10/09 02:40:46;;;;;;;0.50;0.50;;;1.20;99.90;;;;;;5054392;28;20213;-67
2022/10/09 02:43:11;;;;;;;0.70;0.70;;;1.20;99.90;;;;;;5073411;28;20717;-67
2022/10/09 02:45:37;;;;;;;0.70;0.70;;;1.10;99.90;;;;;;5073093;28;20193;-68
2022/10/09 02:48:02;;;;;;;0.70;0.70;;;1.10;99.90;;;;;;5073217;28;20193;-69
2022/10/09 02:50:28;;;;;;;0.60;0.60;;;1.00;99.90;;;;;;5073005;28;20193;-68
2022/10/09 02:52:54;;;;;;;0.70;0.70;;;0.90;99.90;;;;;;5069349;28;20247;-70
2022/10/09 02:55:19;;;;;;;0.68;0.68;;;0.80;99.90;;;;;;5051768;28;20197;-69
2022/10/09 02:57:45;;;;;;;0.45;0.45;;;0.80;99.90;;;;;;5053372;28;20205;-68
2022/10/09 03:00:11;;;;;;;0.75;0.75;;;0.70;99.90;;;;;;5046860;28;20209;-67
2022/10/09 03:02:37;;;;;;;0.60;0.60;;;0.70;99.90;;;;;;5047691;28;20249;-68
2022/10/09 03:05:02;;;;;;;0.60;0.60;;;0.70;99.90;;;;;;5032012;28;20198;-68
2022/10/09 03:07:28;;;;;;;0.65;0.65;;;0.70;99.90;;;;;;5031529;28;20199;-67
2022/10/09 03:09:56;;;;;;;0.60;0.60;;;0.70;99.90;;;;;;5032681;28;20222;-68
2022/10/09 03:12:21;;;;;;;0.60;0.60;;;0.80;99.90;;;;;;5032633;28;20201;-69
2022/10/09 03:14:47;;;;;;;0.70;0.70;;;0.80;99.90;;;;;;5032816;28;20194;-67
2022/10/09 03:17:12;;;;;;;0.68;0.68;;;0.80;99.90;;;;;;5032831;28;20190;-68
2022/10/09 03:19:38;;;;;;;0.60;0.60;;;0.80;99.90;;;;;;5049990;28;20267;-68
2022/10/09 03:22:04;;;;;;;0.90;0.90;;;0.90;99.90;;;;;;5051206;28;20602;-67
2022/10/09 03:24:29;;;;;;;0.70;0.70;;;0.90;99.90;;;;;;5052239;28;20201;-64
2022/10/09 03:26:55;;;;;;;0.70;0.70;;;0.90;99.90;;;;;;5058628;28;20197;-66
2022/10/09 03:29:20;;;;;;;0.60;0.60;;;0.90;99.90;;;;;;5072183;28;20207;-67
2022/10/09 03:31:46;;;;;;;0.70;0.70;;;0.90;99.90;;;;;;5072448;28;20207;-68
2022/10/09 03:34:12;;;;;;;0.57;0.57;;;0.90;99.90;;;;;;5072323;28;20201;-69
2022/10/09 03:36:38;;;;;;;0.60;0.60;;;0.90;99.90;;;;;;5072213;28;20756;-68
2022/10/09 03:39:04;;;;;;;0.70;0.70;;;0.90;99.90;;;;;;5054307;28;20239;-66
2022/10/09 03:41:29;;;;;;;0.60;0.60;;;0.90;99.90;;;;;;5072018;28;20590;-68
2022/10/09 03:43:56;;;;;;;0.60;0.60;;;0.90;99.90;;;;;;5072142;28;20612;-67
2022/10/09 03:46:21;;;;;;;0.70;0.70;;;0.90;99.90;;;;;;5071857;28;20215;-68
2022/10/09 03:48:47;;;;;;;0.70;0.70;;;0.90;99.90;;;;;;5071366;28;20197;-68
2022/10/09 03:51:12;;;;;;;0.70;0.70;;;0.90;99.90;;;;;;5051924;28;20193;-68
2022/10/09 03:53:38;;;;;;;0.60;0.60;;;0.90;99.90;;;;;;5050558;28;20255;-68
2022/10/09 03:56:04;;;;;;;0.60;0.60;;;1.00;99.90;;;;;;5051817;28;20208;-68
2022/10/09 03:58:30;;;;;;;0.60;0.60;;;0.90;99.90;;;;;;5051787;28;20415;-68
2022/10/09 04:00:55;;;;;;;0.70;0.70;;;0.90;99.90;;;;;;5050450;28;20239;-67
2022/10/09 04:03:21;;;;;;;0.70;0.70;;;0.90;99.90;;;;;;5051619;28;20247;-68
2022/10/09 04:05:47;;;;;;;0.75;0.75;;;0.90;99.90;;;;;;5051881;28;20189;-67
2022/10/09 04:08:13;;;;;;;0.80;0.80;;;0.90;99.90;;;;;;5051732;28;20259;-68
2022/10/09 04:10:38;;;;;;;0.60;0.60;;;0.80;99.90;;;;;;5051307;28;20332;-69
2022/10/09 04:13:04;;;;;;;0.70;0.70;;;0.90;99.90;;;;;;5051691;28;20611;-69
2022/10/09 04:15:30;;;;;;;0.70;0.70;;;0.90;99.90;;;;;;5033504;28;20279;-68
2022/10/09 04:17:55;;;;;;;0.80;0.80;;;0.90;99.90;;;;;;5033632;28;20664;-68
2022/10/09 04:20:21;;;;;;;0.60;0.60;;;0.90;99.90;;;;;;5033113;28;20670;-69
2022/10/09 04:22:47;;;;;;;0.70;0.70;;;0.90;99.90;;;;;;5053221;28;20216;-69
2022/10/09 04:25:13;;;;;;;0.68;0.68;;;0.90;99.90;;;;;;5053385;28;20292;-68
2022/10/09 04:27:38;;;;;;;0.60;0.60;;;0.90;99.90;;;;;;5071343;28;20193;-68
2022/10/09 04:30:05;;;;;;;0.60;0.60;;;0.80;99.90;;;;;;5053496;28;20264;-68
2022/10/09 04:32:31;;;;;;;0.70;0.70;;;0.70;99.90;;;;;;5071572;28;20250;-67
2022/10/09 04:34:56;;;;;;;0.60;0.60;;;0.60;99.90;;;;;;5071414;28;20205;-69
2022/10/09 04:37:22;;;;;;;0.70;0.70;;;0.50;99.90;;;;;;5071562;28;20203;-68
2022/10/09 04:39:47;;;;;;;0.60;0.60;;;0.40;99.90;;;;;;5071343;28;20576;-67
2022/10/09 04:42:13;;;;;;;0.60;0.60;;;0.30;99.90;;;;;;5071138;28;20618;-68
2022/10/09 04:44:39;;;;;;;0.80;0.80;;;0.20;99.90;;;;;;5071119;28;20197;-68
2022/10/09 04:47:04;;;;;;;0.63;0.63;;;0.00;99.90;;;;;;5053600;28;20197;-68
2022/10/09 04:49:30;;;;;;;1.08;1.02;;;0.00;99.90;;;;;;5051033;28;20193;-67
2022/10/09 04:51:55;;;;;;;0.70;0.70;;;0.00;99.90;;;;;;5049711;28;20202;-68
2022/10/09 04:54:21;;;;;;;0.80;0.80;;;-0.10;99.90;;;;;;5050961;28;20204;-68
2022/10/09 04:56:47;;;;;;;0.68;0.68;;;-0.10;99.90;;;;;;5051123;28;20212;-68
2022/10/09 04:59:12;;;;;;;0.80;0.80;;;-0.10;99.90;;;;;;5051114;28;20244;-68
2022/10/09 05:01:38;;;;;;;0.70;0.70;;;-0.10;99.90;;;;;;5050841;28;20228;-67
2022/10/09 05:04:04;;;;;;;0.60;0.60;;;-0.10;99.90;;;;;;5035588;28;20189;-66
2022/10/09 05:06:29;;;;;;;0.70;0.70;;;0.00;99.90;;;;;;5055133;28;20197;-68
2022/10/09 05:08:55;;;;;;;0.70;0.70;;;0.20;99.90;;;;;;5055072;28;20200;-66
2022/10/09 05:11:23;;;;;;;0.70;0.70;;;0.30;99.90;;;;;;5059953;28;20308;-65
2022/10/09 05:13:52;;;;;;;0.70;0.70;;;0.40;99.90;;;;;;5057153;28;20205;-67
2022/10/09 05:16:23;;;;;;;0.70;0.70;;;0.50;99.90;;;;;;5063122;28;20758;-66
2022/10/09 05:18:54;;;;;;;0.73;0.73;;;0.60;99.90;;;;;;5056245;28;20182;-66
2022/10/09 05:21:20;;;;;;;0.60;0.60;;;0.60;99.90;;;;;;5056750;28;20258;-67
2022/10/09 05:23:47;;;;;;;0.50;0.50;;;0.50;99.90;;;;;;5074940;28;20193;-67
2022/10/09 05:26:21;;;;;;;0.65;0.65;;;0.40;99.90;;;;;;5056830;28;20201;-66
2022/10/09 05:28:47;;;;;;;0.70;0.70;;;0.30;99.90;;;;;;5074695;28;20238;-67
2022/10/09 05:31:21;;;;;;;0.70;0.70;;;0.20;99.90;;;;;;5074615;28;20208;-67
2022/10/09 05:33:47;;;;;;;0.70;0.70;;;0.10;99.90;;;;;;5074707;28;20216;-67
2022/10/09 05:36:13;;;;;;;0.50;0.50;;;0.00;99.90;;;;;;5074713;28;20195;-66
2022/10/09 05:38:39;;;;;;;0.60;0.60;;;-0.10;99.90;;;;;;5056394;28;20228;-68
2022/10/09 05:41:06;;;;;;;0.60;0.60;;;-0.10;99.90;;;;;;5074724;28;20255;-67
2022/10/09 05:43:38;;;;;;;0.70;0.70;;;0.00;99.90;;;;;;5055066;28;20663;-67
2022/10/09 05:46:04;;;;;;;0.50;0.50;;;0.00;99.90;;;;;;5054498;28;20201;-66
2022/10/09 05:48:30;;;;;;;0.70;0.70;;;0.10;99.90;;;;;;5051662;28;20216;-67
2022/10/09 05:51:29;;;;;;;0.60;0.60;;;0.10;99.90;;;;;;5036518;28;20198;-67
2022/10/09 05:53:55;;;;;;;0.68;0.68;;;0.20;99.90;;;;;;5038809;28;20216;-66
2022/10/09 05:56:37;;;;;;;0.70;0.70;;;0.20;99.90;;;;;;5054132;28;20247;-66
2022/10/09 05:59:06;;;;;;;0.70;0.70;;;0.30;99.90;;;;;;5054137;28;20563;-67
2022/10/09 06:01:37;;;;;;;0.60;0.60;;;0.30;99.90;;;;;;5053950;28;20213;-66
2022/10/09 06:04:10;;;;;;;0.70;0.70;;;0.40;99.90;;;;;;5054183;28;20660;-67
2022/10/09 06:06:38;;;;;;;0.70;0.70;;;0.40;99.90;;;;;;5035887;28;20217;-66
2022/10/09 06:09:05;;;;;;;0.70;0.70;;;0.40;99.90;;;;;;5053983;28;20276;-67
2022/10/09 06:11:33;;;;;;;0.63;0.63;;;0.40;99.90;;;;;;5053404;28;20619;-66
2022/10/09 06:14:01;;;;;;;0.90;0.90;;;0.40;99.90;;;;;;5053442;28;20192;-66
2022/10/09 06:16:29;;;;;;;0.68;0.68;;;0.30;99.90;;;;;;5047463;28;20192;-67
2022/10/09 06:18:55;;;;;;;0.60;0.60;;;0.40;99.90;;;;;;5071264;28;20279;-68
2022/10/09 06:21:21;;;;;;;1.27;1.20;;;0.40;99.90;;;;;;5053762;28;20308;-66
2022/10/09 06:24:17;;;;;;;0.60;0.60;;;0.50;99.90;;;;;;5053730;28;20190;-67
2022/10/09 06:26:42;;;;;;;0.63;0.63;;;0.60;99.90;;;;;;5052284;28;20206;-68
2022/10/09 06:29:08;;;;;;;0.50;0.50;;;0.60;99.90;;;;;;5035768;28;20189;-66
2022/10/09 06:31:34;;;;;;;0.50;0.50;;;0.70;99.90;;;;;;5053555;28;20194;-66
2022/10/09 06:34:02;;;;;;;0.50;0.50;;;0.80;99.90;;;;;;5055666;28;20227;-67
2022/10/09 06:36:30;;;;;;;0.57;0.57;;;0.80;99.90;;;;;;5073292;28;20280;-66
2022/10/09 06:38:58;;;;;;;0.75;0.75;;;0.90;99.90;;;;;;5061136;28;20260;-67
2022/10/09 06:41:25;;;;;;;0.60;0.60;;;1.00;99.90;;;;;;5053584;28;20202;-66
2022/10/09 06:44:00;;;;;;;0.60;0.60;;;1.10;99.90;;;;;;5052088;28;20662;-69
2022/10/09 06:46:32;;;;;;;0.70;0.70;;;1.20;99.90;;;;;;5053027;28;20189;-67
2022/10/09 06:48:58;;;;;;;0.50;0.50;;;1.40;99.90;;;;;;5053725;28;20233;-68
2022/10/09 06:51:26;;;;;;;0.60;0.60;;;1.50;99.90;;;;;;5052922;28;20190;-68
2022/10/09 06:53:53;;;;;;;0.50;0.50;;;1.60;99.90;;;;;;5053214;28;20288;-67
2022/10/09 06:56:21;;;;;;;0.60;0.60;;;1.80;99.90;;;;;;5053114;28;20209;-68
2022/10/09 06:58:47;;;;;;;0.60;0.60;;;1.90;99.90;;;;;;5052991;28;20204;-69
2022/10/09 07:01:18;;;;;;;0.50;0.50;;;2.00;99.90;;;;;;5053011;28;20213;-68
2022/10/09 07:03:46;;;;;;;0.60;0.60;;;2.20;99.90;;;;;;5052840;28;20197;-66
2022/10/09 07:06:16;;;;;;;0.60;0.60;;;2.30;99.90;;;;;;5053605;28;20544;-68
2022/10/09 07:08:44;;;;;;;0.50;0.50;;;2.40;99.90;;;;;;5042094;28;20190;-69
2022/10/09 07:11:15;;;;;;;0.60;0.60;;;2.50;99.90;;;;;;5032861;28;20309;-69
2022/10/09 07:13:42;;;;;;;0.70;0.70;;;2.60;99.90;;;;;;5072671;28;20201;-69
2022/10/09 07:16:09;;;;;;;0.60;0.60;;;2.80;99.90;;;;;;5072757;28;20651;-68
2022/10/09 07:18:36;;;;;;;0.50;0.50;;;2.90;99.90;;;;;;5072377;28;20201;-68
2022/10/09 07:21:06;;;;;;;0.60;0.60;;;3.00;99.90;;;;;;5052461;28;20213;-68
2022/10/09 07:23:33;;;;;;;0.65;0.65;;;3.00;99.90;;;;;;5052492;28;20225;-69
2022/10/09 07:25:59;;;;;;;0.65;0.65;;;3.10;99.90;;;;;;5052356;28;20200;-68
2022/10/09 07:28:27;;;;;;;0.50;0.50;;;3.20;99.90;;;;;;5052284;28;20251;-70
2022/10/09 07:30:53;;;;;;;0.60;0.60;;;3.20;99.90;;;;;;5052346;28;20614;-68
2022/10/09 07:33:19;;;;;;;0.50;0.50;;;3.30;99.90;;;;;;5034394;28;20617;-70
2022/10/09 07:35:58;;;;;;;0.60;0.60;;;3.50;99.90;;;;;;5052352;28;20246;-69
2022/10/09 07:38:23;;;;;;;0.70;0.70;;;3.60;99.90;;;;;;5052146;28;20225;-68
2022/10/09 07:40:52;;;;;;;0.50;0.50;;;3.80;99.90;;;;;;5052120;28;20252;-68
2022/10/09 07:43:19;;;;;;;0.50;0.50;;;3.90;99.90;;;;;;5052242;28;20592;-70
2022/10/09 07:45:45;;;;;;;0.50;0.50;;;4.00;99.90;;;;;;5051972;28;20678;-69
2022/10/09 07:48:11;;;;;;;0.50;0.50;;;4.20;99.90;;;;;;5034313;28;20280;-67
2022/10/09 07:50:36;;;;;;;0.70;0.70;;;4.30;99.90;;;;;;5051839;28;20185;-68
2022/10/09 07:53:02;;;;;;;0.55;0.55;;;4.40;99.90;;;;;;5034170;28;20323;-69
2022/10/09 07:55:28;;;;;;;0.60;0.60;;;4.60;99.90;;;;;;5033918;28;20213;-69
2022/10/09 07:57:53;;;;;;;0.63;0.63;;;4.70;99.90;;;;;;5051994;28;20193;-70
2022/10/09 08:00:19;;;;;;;0.85;0.85;;;4.90;99.90;;;;;;5051654;28;20267;-68
2022/10/09 08:02:45;;;;;;;1.00;1.00;;;5.10;99.90;;;;;;5051617;28;20213;-69
2022/10/09 08:05:10;;;;;;;0.63;0.63;;;5.30;99.90;;;;;;5039008;28;20225;-69
2022/10/09 08:07:36;;;;;;;0.50;0.50;;;5.50;99.90;;;;;;5035049;28;20265;-68
2022/10/09 08:10:03;;;;;;;0.88;0.85;;;5.70;99.90;;;;;;5071514;28;20200;-68
2022/10/09 08:12:28;;;;;;;6.63;2.40;;;5.90;99.90;;;;;;5071372;28;20557;-69
2022/10/09 08:14:54;;;;;;;0.60;0.60;;;6.00;99.90;;;;;;5071682;28;20275;-68
2022/10/09 08:17:20;;;;;;;0.60;0.60;;;6.30;99.90;;;;;;5071498;28;20236;-69
2022/10/09 08:19:45;;;;;;;0.65;0.65;;;6.50;99.90;;;;;;5061928;28;20251;-68
2022/10/09 08:22:11;;;;;;;0.70;0.70;;;6.70;99.90;;;;;;5051518;28;20209;-69
2022/10/09 08:24:38;;;;;;;0.60;0.60;;;6.90;99.90;;;;;;5051229;28;20276;-68
2022/10/09 08:27:04;;;;;;;0.57;0.57;;;7.10;99.90;;;;;;5051365;28;20714;-67
2022/10/09 08:29:30;;;;;;;0.50;0.50;;;7.40;99.90;;;;;;5051283;28;20189;-67
2022/10/09 08:31:56;;;;;;;0.60;0.60;;;7.60;99.90;;;;;;5051485;28;20201;-68
2022/10/09 08:34:21;;;;;;;0.60;0.60;;;7.80;99.90;;;;;;5051191;28;20247;-69
2022/10/09 08:36:47;;;;;;;0.73;0.73;;;8.00;99.90;;;;;;5051516;28;20612;-68
2022/10/09 08:39:14;;;;;;;0.65;0.65;;;8.10;99.90;;;;;;5050721;28;20706;-69
2022/10/09 08:41:46;;;;;;;0.60;0.60;;;8.30;99.90;;;;;;5050928;28;20213;-66
2022/10/09 08:44:29;;;;;;;0.70;0.70;;;8.50;99.90;;;;;;5051338;28;20202;-69
2022/10/09 08:47:17;;;;;;;0.70;0.70;;;8.70;99.90;;;;;;5051372;28;20561;-67
2022/10/09 08:49:45;;;;;;;0.70;0.70;;;8.90;99.90;;;;;;5051331;28;20231;-68
2022/10/09 08:52:32;;;;;;;0.70;0.70;;;9.00;99.90;;;;;;5051224;28;20193;-67
2022/10/09 08:55:14;;;;;;;0.60;0.60;;;9.00;99.90;;;;;;5051171;28;20201;-69
2022/10/09 08:57:41;;;;;;;11.73;0.73;;;9.10;99.90;;;;;;5033220;28;20200;-70
2022/10/09 09:00:18;;;;;;;0.60;0.60;;;9.40;99.90;;;;;;5033040;28;20197;-70
2022/10/09 09:03:01;;;;;;;0.60;0.60;;;9.60;99.90;;;;;;5032995;28;20209;-69
2022/10/09 09:05:44;;;;;;;0.60;0.60;;;9.80;99.90;;;;;;5047739;28;20322;-69
2022/10/09 09:08:48;;;;;;;0.52;0.52;;;9.90;99.90;;;;;;5069712;28;20205;-70
2022/10/09 09:11:33;;;;;;;0.70;0.70;;;10.00;99.90;;;;;;5049407;28;20232;-68
2022/10/09 09:14:20;;;;;;;0.65;0.65;;;10.00;99.90;;;;;;5050986;28;20197;-69
2022/10/09 09:16:54;;;;;;;0.70;0.70;;;10.00;99.90;;;;;;5051047;28;20243;-71
2022/10/09 09:19:39;;;;;;;0.52;0.52;;;10.20;99.90;;;;;;5044688;28;20204;-71
2022/10/09 09:22:11;;;;;;;0.52;0.52;;;10.50;99.90;;;;;;5030873;28;20673;-69
2022/10/09 09:24:43;;;;;;;0.50;0.50;;;10.50;99.90;;;;;;5030845;28;20190;-70
2022/10/09 09:27:18;;;;;;;0.60;0.60;;;10.70;99.90;;;;;;5030916;28;20676;-69
2022/10/09 09:30:15;;;;;;;0.52;0.52;;;10.90;99.90;;;;;;5030933;28;20248;-68
2022/10/09 09:33:10;;;;;;;0.45;0.45;;;11.10;99.90;;;;;;5031196;28;20195;-70
2022/10/09 09:35:45;;;;;;;0.80;0.80;;;11.50;99.90;;;;;;5011074;28;20294;-68
2022/10/09 09:38:14;;;;;;;0.50;0.50;;;11.60;99.90;;;;;;5029683;28;20224;-70
2022/10/09 09:40:41;;;;;;;0.50;0.50;;;11.80;99.90;;;;;;5030640;28;20225;-70
2022/10/09 09:43:26;;;;;;;0.60;0.60;;;11.90;99.90;;;;;;5029483;28;20716;-70
2022/10/09 09:45:53;;;;;;;0.50;0.50;;;12.00;99.90;;;;;;5030851;28;20193;-70
2022/10/09 09:48:31;;;;;;;0.50;0.50;;;12.20;99.90;;;;;;5029380;28;20202;-71
2022/10/09 09:50:57;;;;;;;0.60;0.60;;;12.30;99.90;;;;;;5034278;28;20194;-70
2022/10/09 09:53:32;;;;;;;0.50;0.50;;;12.40;99.90;;;;;;5033019;28;20661;-70
2022/10/09 09:55:58;;;;;;;0.60;0.60;;;12.40;99.90;;;;;;5034363;28;20216;-71
2022/10/09 09:58:45;;;;;;;0.50;0.50;;;12.40;99.90;;;;;;5034148;28;20717;-70
2022/10/09 10:01:21;;;;;;;0.50;0.50;;;12.60;99.90;;;;;;5044525;28;20668;-70
2022/10/09 10:03:52;;;;;;;0.50;0.50;;;12.90;99.90;;;;;;5054144;28;20284;-70
2022/10/09 10:06:42;;;;;;;0.45;0.45;;;13.10;99.90;;;;;;5052837;28;20197;-71
2022/10/09 10:09:18;;;;;;;1.30;0.90;;;13.10;99.90;;;;;;5053986;28;20661;-71
2022/10/09 10:11:58;;;;;;;0.55;0.55;;;12.90;99.90;;;;;;5068852;28;20220;-71
2022/10/09 10:14:24;;;;;;;0.50;0.50;;;12.90;99.90;;;;;;5073662;28;20333;-71
2022/10/09 10:16:52;;;;;;;0.50;0.50;;;13.00;99.90;;;;;;5073954;28;20197;-71
2022/10/09 10:19:27;;;;;;;0.50;0.50;;;12.90;99.90;;;;;;5067812;28;20190;-71
2022/10/09 10:22:05;;;;;;;0.50;0.50;;;13.10;99.90;;;;;;5035805;28;20543;-71
2022/10/09 10:24:41;;;;;;;0.60;0.60;;;13.20;99.90;;;;;;5053449;28;20612;-71
2022/10/09 10:27:22;;;;;;;0.50;0.50;;;13.50;99.90;;;;;;5053863;28;20185;-70
2022/10/09 10:29:51;;;;;;;0.45;0.45;;;13.40;99.90;;;;;;5053565;28;20185;-71
2022/10/09 10:33:01;;;;;;;0.40;0.40;;;13.60;99.90;;;;;;5053667;28;20264;-71
2022/10/09 10:35:31;;;;;;;0.50;0.50;;;13.90;99.90;;;;;;4991668;28;20215;-72
2022/10/09 10:38:08;;;;;;;0.50;0.50;;;14.20;99.90;;;;;;4991884;28;20230;-71
2022/10/09 10:41:02;;;;;;;0.50;0.50;;;14.30;99.90;;;;;;5016273;28;20241;-71
2022/10/09 10:43:42;;;;;;;0.40;0.40;;;14.40;99.90;;;;;;5015175;28;20234;-71
2022/10/09 10:46:22;;;;;;;0.40;0.40;;;14.20;99.90;;;;;;5015621;28;20197;-72
2022/10/09 10:48:48;;;;;;;0.40;0.40;;;14.20;99.90;;;;;;5033477;28;20675;-70
2022/10/09 10:51:49;;;;;;;4.25;0.55;;;14.10;99.90;;;;;;5033735;28;20270;-72
2022/10/09 10:54:33;;;;;;;0.40;0.40;;;14.10;99.90;;;;;;5048469;28;20608;-70
2022/10/09 10:57:20;;;;;;;1.05;0.95;;;14.50;99.90;;;;;;5059796;28;20189;-71
2022/10/09 11:00:05;;;;;;;0.40;0.40;;;14.60;99.90;;;;;;5073064;28;20287;-72
2022/10/09 11:02:52;;;;;;;0.50;0.50;;;14.80;99.90;;;;;;5055233;28;20213;-71
2022/10/09 11:05:28;;;;;;;0.40;0.40;;;14.90;99.90;;;;;;5072857;28;20643;-70
2022/10/09 11:07:56;;;;;;;0.40;0.40;;;14.80;99.90;;;;;;5073192;28;20204;-69
2022/10/09 11:11:08;;;;;;;0.40;0.40;;;14.80;99.90;;;;;;5072463;28;20305;-69
2022/10/09 11:13:50;;;;;;;0.40;0.40;;;14.80;99.90;;;;;;5048801;28;20715;-69
2022/10/09 11:16:22;;;;;;;0.40;0.40;;;14.80;99.90;;;;;;5072742;28;20264;-67
2022/10/09 11:19:35;;;;;;;0.32;0.32;;;14.90;99.90;;;;;;5070893;28;20197;-68
2022/10/09 11:22:13;;;;;;;0.30;0.30;;;15.00;99.90;;;;;;5051482;28;20249;-71
2022/10/09 11:25:03;;;;;;;0.88;0.88;;;15.30;99.90;;;;;;5052364;28;20200;-70
2022/10/09 11:27:41;;;;;;;0.30;0.30;;;15.00;99.90;;;;;;5052463;28;20579;-70
2022/10/09 11:30:15;;;;;;;0.40;0.40;;;15.30;99.90;;;;;;5052463;28;20189;-70
2022/10/09 11:32:44;;;;;;;0.40;0.40;;;15.20;99.90;;;;;;5052755;28;20277;-70
2022/10/09 11:35:23;;;;;;;0.40;0.40;;;15.30;99.90;;;;;;5036431;28;20551;-71
2022/10/09 11:38:22;;;;;;;0.40;0.40;;;15.00;99.90;;;;;;5034492;28;20197;-70
2022/10/09 11:41:23;;;;;;;0.40;0.40;;;15.10;99.90;;;;;;5053224;28;20197;-71
2022/10/09 11:44:18;;;;;;;0.75;0.52;;;15.20;99.90;;;;;;5052834;28;20206;-72
2022/10/09 11:46:50;;;;;;;0.40;0.40;;;15.40;99.90;;;;;;5052228;28;20193;-74
2022/10/09 11:49:30;;;;;;;0.40;0.40;;;15.60;99.90;;;;;;5052038;28;20197;-75
2022/10/09 11:52:19;;;;;;;0.30;0.30;;;15.80;99.90;;;;;;5052091;28;20691;-76
2022/10/09 11:54:45;;;;;;;0.40;0.40;;;15.90;99.90;;;;;;5071324;28;20204;-75
2022/10/09 11:57:11;;;;;;;1.13;0.45;;;16.10;99.90;;;;;;5072032;28;20663;-75
2022/10/09 11:59:41;;;;;;;0.40;0.40;;;16.20;99.90;;;;;;5072099;28;20189;-75
2022/10/09 12:02:27;;;;;;;0.30;0.30;;;15.90;99.90;;;;;;5071683;28;20196;-75
2022/10/09 12:04:53;;;;;;;0.40;0.40;;;15.70;99.90;;;;;;5071816;28;20563;-75
2022/10/09 12:07:34;;;;;;;0.40;0.40;;;15.80;99.90;;;;;;5036320;28;20672;-75
2022/10/09 12:10:06;;;;;;;0.30;0.30;;;15.50;99.90;;;;;;5051683;28;20197;-75
2022/10/09 12:12:32;;;;;;;0.30;0.30;;;15.50;99.90;;;;;;5051130;28;20288;-75
2022/10/09 12:15:21;;;;;;;1.15;0.65;;;15.60;99.90;;;;;;5033849;28;20675;-75
2022/10/09 12:17:48;;;;;;;0.50;0.50;;;15.80;99.90;;;;;;5031887;28;20190;-75
2022/10/09 12:20:21;;;;;;;0.45;0.45;;;16.10;99.90;;;;;;5026882;28;20201;-75
2022/10/09 12:22:52;;;;;;;0.30;0.30;;;15.90;99.90;;;;;;5051541;28;20647;-75
2022/10/09 12:25:39;;;;;;;0.30;0.30;;;15.90;99.90;;;;;;5051537;28;20597;-71
2022/10/09 12:28:13;;;;;;;1.38;1.10;;;15.90;99.90;;;;;;5051405;28;20186;-73
2022/10/09 12:30:40;;;;;;;0.30;0.30;;;16.10;99.90;;;;;;5051176;28;20766;-73
2022/10/09 12:33:30;;;;;;;0.30;0.30;;;16.30;99.90;;;;;;5052404;28;20212;-73
2022/10/09 12:36:10;;;;;;;0.30;0.30;;;16.30;99.90;;;;;;5053418;28;20632;-73
2022/10/09 12:38:36;;;;;;;1.90;0.98;;;16.20;99.90;;;;;;5071138;28;20246;-73
2022/10/09 12:41:11;;;;;;;0.30;0.30;;;16.00;99.90;;;;;;5071291;28;20698;-73
2022/10/09 12:43:43;;;;;;;0.30;0.30;;;15.90;99.90;;;;;;5071093;28;20189;-73
2022/10/09 12:46:09;;;;;;;0.30;0.30;;;15.80;99.90;;;;;;5042651;28;20702;-73
2022/10/09 12:48:39;;;;;;;0.35;0.35;;;15.60;99.90;;;;;;5051316;28;20185;-73
2022/10/09 12:51:19;;;;;;;1.27;1.08;;;15.40;99.90;;;;;;5031212;28;20193;-72
2022/10/09 12:53:49;;;;;;;0.40;0.40;;;15.30;99.90;;;;;;5031620;28;20288;-74
2022/10/09 12:56:27;;;;;;;0.38;0.38;;;15.20;99.90;;;;;;5031334;28;20186;-72
2022/10/09 12:58:54;;;;;;;0.40;0.40;;;15.10;99.90;;;;;;5031297;28;20193;-73
2022/10/09 13:01:21;;;;;;;0.40;0.40;;;15.00;99.90;;;;;;5031607;28;20202;-73
2022/10/09 13:03:58;;;;;;;0.40;0.40;;;14.90;99.90;;;;;;5013510;28;20247;-73
2022/10/09 13:06:29;;;;;;;0.50;0.50;;;14.90;99.90;;;;;;5031232;28;20190;-73
2022/10/09 13:08:58;;;;;;;0.40;0.40;;;14.80;99.90;;;;;;5031135;28;20190;-74
2022/10/09 13:11:30;;;;;;;0.40;0.40;;;14.70;99.90;;;;;;5031966;28;20253;-74
2022/10/09 13:13:56;;;;;;;0.40;0.40;;;14.60;99.90;;;;;;5049638;28;20197;-75
2022/10/09 13:16:23;;;;;;;0.40;0.40;;;14.50;99.90;;;;;;5049464;28;20683;-74